METAR AND TAF INFORMATION
METAR FOR LYTV
ADDS - METARS form results

(1925 UTC 26 April 2018)
Data provider http://aviationweather.gov/adds/metars/
 
METAR text: LYTV 261900Z VRB02KT CAVOK 16/12 Q1011
Conditions at: LYTV (TIVAT , CS) observed 1900 UTC 26 April 2018
Temperature: 16.0°C (61°F)
Dewpoint: 12.0°C (54°F) [RH = 77%]
Pressure (altimeter): 29.85 inches Hg (1011.0 mb)
Winds: variable direction winds at 2 MPH (2 knots; 1.0 m/s)
Visibility: 6 or more miles (10+ km)
Ceiling: ceiling and visibility are OK
Clouds: unknown
Weather: no significant weather observed at this time

METAR text: LYTV 261830Z VRB01KT CAVOK 17/13 Q1011 NOSIG
Conditions at: LYTV (TIVAT , CS) observed 1830 UTC 26 April 2018
Temperature: 17.0°C (63°F)
Dewpoint: 13.0°C (55°F) [RH = 77%]
Pressure (altimeter): 29.85 inches Hg (1011.0 mb)
Winds: variable direction winds at 1 MPH (1 knots; 0.5 m/s)
Visibility: 6 or more miles (10+ km)
Ceiling: ceiling and visibility are OK
Clouds: unknown
Weather: no significant weather observed at this time

Forecast for: LYTV (TIVAT , CS)
Text: TAF LYTV 261700Z 2618/2718 34006KT CAVOK TX27/2713Z TN11/2703Z
Forecast period: 1800 UTC 26 April 2018 to 1800 UTC 27 April 2018
Forecast type: FROM: standard forecast or significant change
Winds: from the NNW (340 degrees) at 7 MPH (6 knots; 3.1 m/s)
Visibility: 6 or more miles (10+ km)
Clouds: not forecast
Weather: no significant weather forecast for this period
Forecast for: LYTV (TIVAT , CS)
Text: TAF LYTV 261700Z 2618/2718 34006KT CAVOK TX27/2713Z TN11/2703Z
Forecast period: 1800 UTC 26 April 2018 to 1800 UTC 27 April 2018
Forecast type: FROM: standard forecast or significant change
Winds: from the NNW (340 degrees) at 7 MPH (6 knots; 3.1 m/s)
Visibility: 6 or more miles (10+ km)
Clouds: not forecast
Weather: no significant weather forecast for this period

 AIRPORT MAP

 RUNWAY INFORMATION
Runway 14 Runway length 8208 ft Runway width 148 ft
Runway elevation 7 ft Runway displaced threshold 0 ft Runway heading 139
Runway 32 Runway length 8208 ft Runway width 148 ft
Runway elevation 16 ft Runway displaced threshold 0 ft Runway heading 319

 AIRPORT FREQUENCIES
Type ARR Name APP Frequency 118 MHZ
Type TWR Name TWR Frequency 118 MHZ

 AIRPORT NEAR NAVIGATION AIDS
Type NDB Name Tivat Frequency 345 KHZ



v2.6.1